Time;durP1;ratioP1;P1;durP2;ratioP2;P2;SDS_P1;SDS_P2;PMS_P1;PMS_P2;Temp;Humidity;BMP_temperature;BMP_pressure;BME280_temperature;BME280_humidity;BME280_pressure;Samples;Min_cycle;Max_cycle;Signal;HPM_P1;HPM_P2
2024/03/29 00:00:54;;;;;;;;;;;17.80;62.80;;;;;;4999220;28;1593;-74
2024/03/29 00:03:20;;;;;;;;;;;17.70;62.80;;;;;;5033258;28;1781;-73
2024/03/29 00:05:45;;;;;;;;;;;17.70;62.80;;;;;;5000680;28;1533;-74
2024/03/29 00:08:11;;;;;;;;;;;17.70;62.80;;;;;;4996877;28;1661;-74
2024/03/29 00:10:36;;;;;;;;;;;17.70;62.80;;;;;;5031389;28;1585;-73
2024/03/29 00:13:01;;;;;;;;;;;17.70;62.80;;;;;;4999996;28;1902;-74
2024/03/29 00:15:27;;;;;;;;;;;17.70;62.80;;;;;;4998294;28;1581;-73
2024/03/29 00:17:52;;;;;;;;;;;17.70;62.80;;;;;;5001389;28;1751;-74
2024/03/29 00:20:19;;;;;;;;;;;17.70;62.80;;;;;;5018731;28;1675;-74
2024/03/29 00:22:45;;;;;;;;;;;17.70;62.80;;;;;;5000777;28;1262;-74
2024/03/29 00:25:10;;;;;;;;;;;17.70;62.80;;;;;;5031132;28;1375;-74
2024/03/29 00:27:36;;;;;;;;;;;17.70;62.80;;;;;;5000491;28;1226;-74
2024/03/29 00:30:01;;;;;;;;;;;17.70;62.80;;;;;;5016048;28;1334;-74
2024/03/29 00:32:27;;;;;;;;;;;17.70;62.80;;;;;;5030204;28;1957;-74
2024/03/29 00:34:54;;;;;;;;;;;17.70;62.80;;;;;;5031468;28;1512;-74
2024/03/29 00:37:19;;;;;;;;;;;17.70;62.90;;;;;;5034240;28;1353;-74
2024/03/29 00:39:45;;;;;;;;;;;17.70;62.90;;;;;;4997791;28;1575;-74
2024/03/29 00:42:12;;;;;;;;;;;17.70;62.90;;;;;;5000690;28;1462;-74
2024/03/29 00:44:38;;;;;;;;;;;17.70;62.90;;;;;;5031165;28;1477;-74
2024/03/29 00:47:06;;;;;;;;;;;17.70;62.90;;;;;;4999587;28;1436;-74
2024/03/29 00:49:32;;;;;;;;;;;17.70;62.90;;;;;;5034057;28;1228;-73
2024/03/29 00:51:57;;;;;;;;;;;17.70;62.90;;;;;;5033984;28;1871;-74
2024/03/29 00:54:25;;;;;;;;;;;17.70;62.90;;;;;;4998053;28;1404;-74
2024/03/29 00:56:51;;;;;;;;;;;17.70;62.90;;;;;;4999534;28;1584;-74
2024/03/29 00:59:17;;;;;;;;;;;17.70;62.90;;;;;;4998412;28;1481;-74
2024/03/29 01:01:42;;;;;;;;;;;17.70;62.90;;;;;;5031935;28;1360;-74
2024/03/29 01:04:07;;;;;;;;;;;17.70;62.90;;;;;;5022719;28;1608;-74
2024/03/29 01:06:33;;;;;;;;;;;17.70;62.90;;;;;;4997404;28;1421;-74
2024/03/29 01:08:59;;;;;;;;;;;17.70;62.90;;;;;;4997864;28;1521;-74
2024/03/29 01:11:25;;;;;;;;;;;17.70;62.90;;;;;;5031041;28;1906;-74
2024/03/29 01:13:50;;;;;;;;;;;17.70;63.00;;;;;;4997548;28;1480;-73
2024/03/29 01:16:16;;;;;;;;;;;17.70;63.00;;;;;;5031418;28;1249;-73
2024/03/29 01:18:43;;;;;;;;;;;17.70;63.00;;;;;;4998992;28;1590;-73
2024/03/29 01:21:09;;;;;;;;;;;17.70;63.00;;;;;;5031016;28;1234;-73
2024/03/29 01:23:34;;;;;;;;;;;17.70;63.00;;;;;;5029127;28;1268;-73
2024/03/29 01:26:00;;;;;;;;;;;17.70;63.00;;;;;;5000504;28;1364;-73
2024/03/29 01:28:25;;;;;;;;;;;17.70;63.00;;;;;;4998511;28;1263;-73
2024/03/29 01:30:51;;;;;;;;;;;17.70;63.00;;;;;;4998913;28;1133;-73
2024/03/29 01:33:17;;;;;;;;;;;17.70;63.00;;;;;;4999748;28;1979;-74
2024/03/29 01:35:42;;;;;;;;;;;17.70;63.00;;;;;;4997204;28;1269;-73
2024/03/29 01:38:08;;;;;;;;;;;17.70;63.00;;;;;;5031210;28;1329;-73
2024/03/29 01:40:33;;;;;;;;;;;17.70;63.00;;;;;;5030921;28;1048;-73
2024/03/29 01:43:00;;;;;;;;;;;17.70;63.00;;;;;;5032622;28;1497;-73
2024/03/29 01:45:25;;;;;;;;;;;17.70;63.00;;;;;;5030768;28;1229;-73
2024/03/29 01:47:51;;;;;;;;;;;17.70;63.00;;;;;;4997346;28;1364;-73
2024/03/29 01:50:16;;;;;;;;;;;17.70;63.00;;;;;;5032217;28;1121;-73
2024/03/29 01:52:42;;;;;;;;;;;17.70;63.00;;;;;;5034621;28;1971;-74
2024/03/29 01:55:07;;;;;;;;;;;17.70;63.00;;;;;;5034719;28;1447;-73
2024/03/29 01:57:33;;;;;;;;;;;17.70;63.00;;;;;;5033815;28;1419;-73
2024/03/29 01:59:59;;;;;;;;;;;17.70;63.00;;;;;;5004366;28;1237;-73
2024/03/29 02:02:24;;;;;;;;;;;17.70;63.00;;;;;;5034303;28;1575;-73
2024/03/29 02:04:50;;;;;;;;;;;17.70;63.10;;;;;;5033544;28;1495;-73
2024/03/29 02:07:15;;;;;;;;;;;17.70;63.10;;;;;;5034693;28;1484;-74
2024/03/29 02:09:40;;;;;;;;;;;17.70;63.10;;;;;;5037311;28;1574;-73
2024/03/29 02:12:07;;;;;;;;;;;17.70;63.10;;;;;;5002918;28;1918;-73
2024/03/29 02:14:32;;;;;;;;;;;17.70;63.10;;;;;;5031711;28;1635;-73
2024/03/29 02:16:58;;;;;;;;;;;17.70;63.10;;;;;;5003269;28;1450;-73
2024/03/29 02:19:23;;;;;;;;;;;17.70;63.10;;;;;;5033562;28;1339;-74
2024/03/29 02:21:49;;;;;;;;;;;17.70;63.10;;;;;;5000335;28;1470;-74
2024/03/29 02:24:16;;;;;;;;;;;17.70;63.10;;;;;;5026584;28;1566;-74
2024/03/29 02:26:42;;;;;;;;;;;17.60;63.10;;;;;;5000857;28;1604;-73
2024/03/29 02:29:08;;;;;;;;;;;17.70;63.10;;;;;;5034621;28;1573;-73
2024/03/29 02:31:33;;;;;;;;;;;17.70;63.10;;;;;;5000426;28;1960;-73
2024/03/29 02:33:59;;;;;;;;;;;17.70;63.10;;;;;;5031854;28;1325;-74
2024/03/29 02:36:24;;;;;;;;;;;17.70;63.10;;;;;;5032003;28;1402;-73
2024/03/29 02:38:50;;;;;;;;;;;17.70;63.10;;;;;;5002146;28;1378;-74
2024/03/29 02:41:15;;;;;;;;;;;17.60;63.10;;;;;;5004235;28;1270;-72
2024/03/29 02:43:41;;;;;;;;;;;17.70;63.20;;;;;;5001796;28;1390;-73
2024/03/29 02:46:06;;;;;;;;;;;17.70;63.20;;;;;;5003216;28;1462;-73
2024/03/29 02:48:32;;;;;;;;;;;17.60;63.10;;;;;;5000964;28;884;-71
2024/03/29 02:50:57;;;;;;;;;;;17.70;63.20;;;;;;5003612;28;1410;-72
2024/03/29 02:53:23;;;;;;;;;;;17.70;63.20;;;;;;5032585;28;1902;-72
2024/03/29 02:55:48;;;;;;;;;;;17.60;63.10;;;;;;5000864;28;1771;-72
2024/03/29 02:58:13;;;;;;;;;;;17.60;63.10;;;;;;5036108;28;1485;-74
2024/03/29 03:00:39;;;;;;;;;;;17.60;63.10;;;;;;5000474;28;995;-73
2024/03/29 03:03:04;;;;;;;;;;;17.60;63.20;;;;;;5002450;28;1525;-73
2024/03/29 03:05:30;;;;;;;;;;;17.60;63.10;;;;;;5002873;28;1391;-73
2024/03/29 03:11:00;;;;;;;;;;;17.60;63.10;;;;;;5002085;28;1230;-73
2024/03/29 03:13:27;;;;;;;;;;;17.70;63.20;;;;;;5049154;28;1958;-74
2024/03/29 03:15:53;;;;;;;;;;;17.60;63.10;;;;;;5032345;28;1754;-73
2024/03/29 03:18:18;;;;;;;;;;;17.60;63.20;;;;;;5000844;28;1383;-73
2024/03/29 03:20:50;;;;;;;;;;;17.60;63.20;;;;;;5032223;28;1732;-73
2024/03/29 03:23:15;;;;;;;;;;;17.60;63.20;;;;;;5034232;28;1546;-73
2024/03/29 03:25:41;;;;;;;;;;;17.60;63.10;;;;;;5030097;28;1553;-73
2024/03/29 03:28:06;;;;;;;;;;;17.60;63.20;;;;;;5031436;28;1531;-73
2024/03/29 03:30:31;;;;;;;;;;;17.60;63.20;;;;;;4999517;28;1231;-73
2024/03/29 03:32:57;;;;;;;;;;;17.60;63.20;;;;;;4999603;28;1970;-73
2024/03/29 03:35:22;;;;;;;;;;;17.60;63.20;;;;;;5002438;28;1523;-73
2024/03/29 03:37:49;;;;;;;;;;;17.60;63.20;;;;;;4999715;28;1384;-73
2024/03/29 03:40:14;;;;;;;;;;;17.60;63.20;;;;;;5001817;28;1447;-73
2024/03/29 03:42:40;;;;;;;;;;;17.60;63.20;;;;;;5017005;28;1588;-73
2024/03/29 03:45:05;;;;;;;;;;;17.60;63.20;;;;;;5033468;28;1352;-73
2024/03/29 03:47:31;;;;;;;;;;;17.60;63.20;;;;;;5002154;28;1456;-73
2024/03/29 03:49:56;;;;;;;;;;;17.60;63.20;;;;;;5030612;28;1748;-73
2024/03/29 03:52:22;;;;;;;;;;;17.60;63.20;;;;;;5031997;28;2009;-74
2024/03/29 03:54:47;;;;;;;;;;;17.60;63.20;;;;;;5032348;28;1513;-74
2024/03/29 03:57:13;;;;;;;;;;;17.60;63.20;;;;;;5032528;28;1508;-74
2024/03/29 03:59:38;;;;;;;;;;;17.60;63.20;;;;;;5032495;28;1458;-73
2024/03/29 04:02:04;;;;;;;;;;;17.60;63.20;;;;;;5030894;28;1615;-72
2024/03/29 04:04:29;;;;;;;;;;;17.60;63.20;;;;;;5002555;28;1595;-73
2024/03/29 04:06:55;;;;;;;;;;;17.60;63.20;;;;;;5000041;28;1429;-73
2024/03/29 04:09:20;;;;;;;;;;;17.60;63.20;;;;;;5032585;28;1214;-72
2024/03/29 04:11:45;;;;;;;;;;;17.60;63.20;;;;;;5032209;28;1914;-73
2024/03/29 04:14:11;;;;;;;;;;;17.60;63.20;;;;;;4998882;28;1061;-73
2024/03/29 04:16:36;;;;;;;;;;;17.60;63.20;;;;;;5016714;28;1269;-71
2024/03/29 04:19:02;;;;;;;;;;;17.60;63.30;;;;;;5030389;28;1100;-73
2024/03/29 04:21:27;;;;;;;;;;;17.60;63.20;;;;;;5032496;28;1137;-72
2024/03/29 04:23:53;;;;;;;;;;;17.60;63.30;;;;;;4997342;28;1143;-72
2024/03/29 04:26:18;;;;;;;;;;;17.60;63.30;;;;;;4998965;28;1508;-76
2024/03/29 04:28:44;;;;;;;;;;;17.60;63.30;;;;;;4998970;28;1543;-75
2024/03/29 04:31:10;;;;;;;;;;;17.60;63.30;;;;;;5031552;28;1636;-74
2024/03/29 04:33:36;;;;;;;;;;;17.60;63.30;;;;;;4999578;28;1902;-75
2024/03/29 04:36:02;;;;;;;;;;;17.60;63.30;;;;;;4999802;28;1521;-75
2024/03/29 04:38:27;;;;;;;;;;;17.60;63.30;;;;;;5034093;28;1336;-75
2024/03/29 04:40:54;;;;;;;;;;;17.60;63.30;;;;;;5029342;28;1330;-74
2024/03/29 04:43:24;;;;;;;;;;;17.60;63.30;;;;;;4990678;28;1673;-73
2024/03/29 04:45:49;;;;;;;;;;;17.60;64.10;;;;;;5029681;28;1623;-73
2024/03/29 04:48:15;;;;;;;;;;;17.60;63.30;;;;;;5032748;28;1559;-74
2024/03/29 04:50:40;;;;;;;;;;;17.60;63.30;;;;;;5031027;28;1439;-73
2024/03/29 04:53:09;;;;;;;;;;;17.60;63.30;;;;;;5000890;28;1910;-73
2024/03/29 04:55:35;;;;;;;;;;;17.60;63.30;;;;;;5001168;28;1284;-73
2024/03/29 04:58:01;;;;;;;;;;;17.60;63.30;;;;;;5034025;28;1331;-72
2024/03/29 05:00:26;;;;;;;;;;;17.60;63.40;;;;;;5000828;28;1479;-72
2024/03/29 05:02:52;;;;;;;;;;;17.60;63.30;;;;;;5000082;28;1527;-72
2024/03/29 05:05:17;;;;;;;;;;;17.60;63.30;;;;;;4998063;28;1405;-73
2024/03/29 05:07:42;;;;;;;;;;;17.60;63.30;;;;;;5029687;28;1495;-73
2024/03/29 05:10:09;;;;;;;;;;;17.60;63.30;;;;;;5000709;28;1444;-72
2024/03/29 05:12:38;;;;;;;;;;;17.60;63.30;;;;;;5029788;28;1902;-72
2024/03/29 05:15:03;;;;;;;;;;;17.60;63.30;;;;;;4999084;28;1545;-72
2024/03/29 05:17:29;;;;;;;;;;;17.60;63.20;;;;;;5015158;28;1620;-71
2024/03/29 05:19:54;;;;;;;;;;;17.60;63.90;;;;;;4999397;28;1334;-72
2024/03/29 05:22:20;;;;;;;;;;;17.70;63.10;;;;;;5029067;28;1723;-73
2024/03/29 05:24:45;;;;;;;;;;;17.70;63.00;;;;;;5029925;28;1520;-72
2024/03/29 05:27:11;;;;;;;;;;;17.70;62.90;;;;;;5003225;28;1486;-73
2024/03/29 05:29:37;;;;;;;;;;;17.70;62.90;;;;;;5029736;28;1321;-72
2024/03/29 05:32:04;;;;;;;;;;;17.80;62.80;;;;;;5031615;28;1906;-72
2024/03/29 05:34:29;;;;;;;;;;;17.80;62.70;;;;;;5028116;28;1281;-72
2024/03/29 05:36:55;;;;;;;;;;;17.80;62.60;;;;;;4997018;28;1356;-72
2024/03/29 05:39:20;;;;;;;;;;;17.80;62.50;;;;;;4999454;28;1487;-71
2024/03/29 05:41:45;;;;;;;;;;;17.90;62.50;;;;;;5000134;28;1328;-71
2024/03/29 05:44:11;;;;;;;;;;;17.90;62.50;;;;;;4997613;28;1732;-73
2024/03/29 05:46:38;;;;;;;;;;;17.90;62.40;;;;;;4998103;28;1249;-73
2024/03/29 05:49:03;;;;;;;;;;;17.90;62.30;;;;;;5022360;28;1474;-73
2024/03/29 05:51:29;;;;;;;;;;;17.90;62.30;;;;;;4997258;28;1891;-73
2024/03/29 05:53:56;;;;;;;;;;;18.00;62.20;;;;;;5029861;28;1494;-73
2024/03/29 05:56:22;;;;;;;;;;;17.90;62.90;;;;;;4994828;28;1261;-73
2024/03/29 05:58:47;;;;;;;;;;;17.90;62.10;;;;;;5014095;28;1438;-71
2024/03/29 06:01:13;;;;;;;;;;;18.00;62.00;;;;;;4994210;28;2231;-71
2024/03/29 06:03:38;;;;;;;;;;;18.00;62.00;;;;;;4998866;28;1437;-70
2024/03/29 06:06:04;;;;;;;;;;;18.00;62.00;;;;;;4995615;28;1511;-69
2024/03/29 06:08:29;;;;;;;;;;;18.00;61.90;;;;;;5031682;28;1886;-68
2024/03/29 06:10:55;;;;;;;;;;;18.00;61.90;;;;;;4996855;28;1483;-69
2024/03/29 06:17:22;;;;;;;;;;;18.00;61.90;;;;;;4996122;28;1965;-69
2024/03/29 06:18:59;;;;;;;;;;;18.00;61.80;;;;;;4996624;28;2177;-69
2024/03/29 06:21:24;;;;;;;;;;;18.00;61.80;;;;;;4997328;28;1106;-69
2024/03/29 06:23:50;;;;;;;;;;;18.00;61.80;;;;;;4996509;28;1182;-68
2024/03/29 06:26:15;;;;;;;;;;;18.00;61.70;;;;;;4997066;28;1705;-69
2024/03/29 06:28:41;;;;;;;;;;;18.10;61.80;;;;;;5006395;28;1539;-70
2024/03/29 06:31:06;;;;;;;;;;;18.00;61.80;;;;;;4997048;28;1443;-70
2024/03/29 06:33:32;;;;;;;;;;;18.10;61.80;;;;;;4996863;28;1902;-69
2024/03/29 06:35:57;;;;;;;;;;;18.10;61.80;;;;;;4998912;28;1513;-69
2024/03/29 06:38:22;;;;;;;;;;;18.10;61.80;;;;;;5001195;28;1132;-69
2024/03/29 06:40:48;;;;;;;;;;;18.10;61.70;;;;;;5035780;28;1560;-69
2024/03/29 06:43:14;;;;;;;;;;;18.10;61.70;;;;;;5003675;28;1016;-71
2024/03/29 06:45:45;;;;;;;;;;;18.10;61.80;;;;;;5031898;28;1284;-73
2024/03/29 06:48:10;;;;;;;;;;;18.00;62.40;;;;;;5001557;28;1248;-71
2024/03/29 06:50:40;;;;;;;;;;;18.10;61.80;;;;;;5020113;28;1183;-72
2024/03/29 06:53:06;;;;;;;;;;;18.00;61.70;;;;;;5034752;28;1902;-71
2024/03/29 06:55:31;;;;;;;;;;;18.00;61.80;;;;;;5001411;28;1276;-72
2024/03/29 06:57:56;;;;;;;;;;;18.00;61.70;;;;;;5002534;28;1231;-72
2024/03/29 07:00:22;;;;;;;;;;;18.00;61.70;;;;;;4999164;28;1050;-71
2024/03/29 07:02:47;;;;;;;;;;;18.10;61.80;;;;;;5002037;28;1402;-69
2024/03/29 07:05:13;;;;;;;;;;;18.00;61.80;;;;;;5020194;28;1408;-70
2024/03/29 07:07:40;;;;;;;;;;;18.00;61.80;;;;;;5000027;28;1812;-70
2024/03/29 07:10:06;;;;;;;;;;;18.10;61.90;;;;;;5002704;28;1482;-69
2024/03/29 07:12:31;;;;;;;;;;;18.00;61.80;;;;;;5003692;28;1898;-69
2024/03/29 07:14:57;;;;;;;;;;;18.00;61.80;;;;;;5001177;28;1459;-70
2024/03/29 07:17:22;;;;;;;;;;;18.00;61.90;;;;;;5002224;28;1228;-69
2024/03/29 07:19:47;;;;;;;;;;;18.00;61.90;;;;;;5001317;28;1438;-70
2024/03/29 07:22:13;;;;;;;;;;;18.00;61.90;;;;;;5004731;28;1919;-74
2024/03/29 07:24:38;;;;;;;;;;;18.00;61.90;;;;;;4999997;28;1542;-71
2024/03/29 07:27:04;;;;;;;;;;;18.00;61.90;;;;;;5000135;28;1399;-72
2024/03/29 07:29:31;;;;;;;;;;;18.00;62.00;;;;;;5007886;28;1338;-72
2024/03/29 07:31:56;;;;;;;;;;;18.00;62.00;;;;;;5001090;28;1898;-72
2024/03/29 07:34:22;;;;;;;;;;;18.00;62.00;;;;;;4998294;28;1441;-71
2024/03/29 07:36:47;;;;;;;;;;;18.00;62.00;;;;;;5001533;28;1459;-69
2024/03/29 07:39:13;;;;;;;;;;;18.00;62.10;;;;;;4998564;28;1572;-69
2024/03/29 07:41:38;;;;;;;;;;;18.00;62.00;;;;;;5001775;28;1444;-69
2024/03/29 07:44:04;;;;;;;;;;;17.90;62.00;;;;;;4999770;28;1494;-70
2024/03/29 07:46:31;;;;;;;;;;;17.90;62.00;;;;;;5002583;28;1475;-69
2024/03/29 07:48:57;;;;;;;;;;;18.00;62.10;;;;;;4999370;28;1546;-72
2024/03/29 07:51:23;;;;;;;;;;;17.90;62.10;;;;;;4998739;28;1470;-71
2024/03/29 07:53:48;;;;;;;;;;;18.00;62.10;;;;;;5000343;28;1902;-70
2024/03/29 07:56:13;;;;;;;;;;;18.00;62.20;;;;;;5031637;28;1445;-69
2024/03/29 07:58:39;;;;;;;;;;;17.90;62.20;;;;;;5000959;28;2094;-70
2024/03/29 08:01:05;;;;;;;;;;;18.00;62.20;;;;;;5000379;28;1459;-72
2024/03/29 08:03:34;;;;;;;;;;;17.90;62.20;;;;;;5000119;28;1681;-73
2024/03/29 08:06:00;;;;;;;;;;;17.90;62.20;;;;;;4997293;28;1386;-73
2024/03/29 08:08:27;;;;;;;;;;;18.00;62.30;;;;;;5000046;28;1864;-74
2024/03/29 08:10:52;;;;;;;;;;;17.90;63.00;;;;;;5001771;28;1253;-74
2024/03/29 08:13:20;;;;;;;;;;;17.90;62.20;;;;;;4996830;28;1974;-73
2024/03/29 08:15:46;;;;;;;;;;;17.90;62.30;;;;;;5003555;28;1379;-73
2024/03/29 08:18:11;;;;;;;;;;;17.90;62.30;;;;;;5032026;28;1473;-72
2024/03/29 08:20:37;;;;;;;;;;;17.90;62.30;;;;;;4999492;28;1317;-72
2024/03/29 08:23:03;;;;;;;;;;;17.90;62.30;;;;;;4999658;28;1549;-72
2024/03/29 08:25:29;;;;;;;;;;;17.90;62.30;;;;;;5031803;28;1435;-70
2024/03/29 08:28:01;;;;;;;;;;;17.90;62.40;;;;;;5020403;28;1527;-73
2024/03/29 08:30:31;;;;;;;;;;;17.90;62.40;;;;;;5021474;28;1283;-72
2024/03/29 08:32:59;;;;;;;;;;;17.90;62.40;;;;;;5013496;28;1910;-71
2024/03/29 08:35:24;;;;;;;;;;;17.90;62.40;;;;;;4998658;28;1252;-72
2024/03/29 08:37:50;;;;;;;;;;;17.90;62.50;;;;;;5017455;28;1406;-73
2024/03/29 08:40:16;;;;;;;;;;;17.90;62.40;;;;;;5030000;28;1359;-72
2024/03/29 08:42:41;;;;;;;;;;;17.90;62.40;;;;;;5000976;28;1414;-75
2024/03/29 08:45:08;;;;;;;;;;;17.90;62.40;;;;;;5032728;28;1414;-74
2024/03/29 08:47:33;;;;;;;;;;;17.90;62.40;;;;;;4999208;28;1234;-71
2024/03/29 08:49:59;;;;;;;;;;;17.80;62.30;;;;;;5029826;28;1534;-72
2024/03/29 08:52:24;;;;;;;;;;;17.90;62.40;;;;;;5001190;28;1898;-73
2024/03/29 08:54:50;;;;;;;;;;;17.90;62.40;;;;;;4999963;28;1284;-73
2024/03/29 08:57:15;;;;;;;;;;;17.90;62.40;;;;;;5034716;28;1790;-74
2024/03/29 08:59:41;;;;;;;;;;;17.90;62.40;;;;;;5031846;28;1275;-73
2024/03/29 09:02:07;;;;;;;;;;;17.90;62.30;;;;;;5033719;28;1398;-74
2024/03/29 09:04:35;;;;;;;;;;;17.90;62.30;;;;;;5009858;28;1150;-74
2024/03/29 09:07:04;;;;;;;;;;;17.90;62.30;;;;;;5005217;28;1253;-74
2024/03/29 09:09:30;;;;;;;;;;;18.00;62.20;;;;;;5002833;28;1235;-74
2024/03/29 09:11:56;;;;;;;;;;;17.90;62.20;;;;;;5008107;28;1886;-74
2024/03/29 09:14:21;;;;;;;;;;;17.90;62.10;;;;;;5000392;28;1307;-74
2024/03/29 09:16:47;;;;;;;;;;;17.90;62.10;;;;;;5035441;28;1535;-73
2024/03/29 09:19:13;;;;;;;;;;;18.00;62.10;;;;;;5032087;28;1580;-72
2024/03/29 09:21:39;;;;;;;;;;;18.00;62.10;;;;;;5001478;28;1505;-72
2024/03/29 09:24:05;;;;;;;;;;;18.00;62.00;;;;;;5006411;28;1559;-72
2024/03/29 09:26:31;;;;;;;;;;;18.00;62.00;;;;;;5002674;28;1561;-74
2024/03/29 09:28:56;;;;;;;;;;;18.00;62.00;;;;;;5004306;28;1317;-74
2024/03/29 09:31:22;;;;;;;;;;;18.00;62.00;;;;;;5008062;28;903;-73
2024/03/29 09:33:52;;;;;;;;;;;18.00;62.00;;;;;;5009842;28;1975;-72
2024/03/29 09:36:19;;;;;;;;;;;18.00;62.00;;;;;;5037226;28;2178;-71
2024/03/29 09:38:44;;;;;;;;;;;18.00;61.90;;;;;;5013804;28;1490;-72
2024/03/29 09:41:11;;;;;;;;;;;18.00;61.90;;;;;;4998527;28;1316;-71
2024/03/29 09:43:37;;;;;;;;;;;18.00;62.60;;;;;;5031776;28;1372;-72
2024/03/29 09:46:03;;;;;;;;;;;18.00;61.90;;;;;;5000974;28;1454;-72
2024/03/29 09:48:36;;;;;;;;;;;18.00;61.90;;;;;;5029699;28;1585;-73
2024/03/29 09:51:02;;;;;;;;;;;18.10;61.90;;;;;;5032699;28;1507;-73
2024/03/29 09:53:27;;;;;;;;;;;18.00;61.80;;;;;;5032161;28;1898;-72
2024/03/29 09:55:53;;;;;;;;;;;18.00;61.80;;;;;;5034151;28;1622;-72
2024/03/29 09:58:18;;;;;;;;;;;18.10;61.90;;;;;;5033435;28;1369;-73
2024/03/29 10:00:44;;;;;;;;;;;18.10;61.80;;;;;;5028422;28;1247;-72
2024/03/29 10:03:09;;;;;;;;;;;18.00;61.70;;;;;;4997661;28;1291;-72
2024/03/29 10:05:35;;;;;;;;;;;18.10;61.80;;;;;;5025376;28;1730;-73
2024/03/29 10:08:05;;;;;;;;;;;18.10;61.80;;;;;;5029072;28;1409;-72
2024/03/29 10:10:31;;;;;;;;;;;18.10;61.80;;;;;;5029436;28;1478;-74
2024/03/29 10:12:56;;;;;;;;;;;18.10;61.70;;;;;;5037278;28;1901;-74
2024/03/29 10:15:25;;;;;;;;;;;18.10;61.70;;;;;;5008052;28;1489;-72
2024/03/29 10:17:50;;;;;;;;;;;18.10;61.80;;;;;;5012897;28;1408;-74
2024/03/29 10:20:17;;;;;;;;;;;18.10;61.70;;;;;;5010668;28;1318;-72
2024/03/29 10:22:45;;;;;;;;;;;18.10;61.70;;;;;;5002365;28;1436;-74
2024/03/29 10:25:11;;;;;;;;;;;18.10;61.70;;;;;;5023562;28;1371;-70
2024/03/29 10:27:36;;;;;;;;;;;18.10;61.70;;;;;;5002674;28;1432;-70
2024/03/29 10:30:03;;;;;;;;;;;18.10;61.70;;;;;;5005410;28;1379;-70
2024/03/29 10:32:29;;;;;;;;;;;18.10;61.80;;;;;;4988427;28;1974;-70
2024/03/29 10:34:54;;;;;;;;;;;18.10;61.80;;;;;;5018323;28;1491;-73
2024/03/29 10:37:26;;;;;;;;;;;18.00;61.70;;;;;;5000776;28;1795;-72
2024/03/29 10:39:52;;;;;;;;;;;18.00;61.80;;;;;;5001331;28;1469;-72
2024/03/29 10:42:18;;;;;;;;;;;18.00;61.80;;;;;;5035124;28;1604;-72
2024/03/29 10:44:44;;;;;;;;;;;18.00;61.80;;;;;;5032679;28;1507;-72
2024/03/29 10:47:09;;;;;;;;;;;18.00;61.80;;;;;;5032413;28;1748;-72
2024/03/29 10:49:35;;;;;;;;;;;18.00;61.80;;;;;;5036025;28;1379;-72
2024/03/29 10:52:02;;;;;;;;;;;18.00;61.90;;;;;;5032617;28;1959;-72
2024/03/29 10:54:28;;;;;;;;;;;18.00;61.90;;;;;;5001527;28;1220;-71
2024/03/29 10:56:56;;;;;;;;;;;18.00;61.90;;;;;;5032694;28;1343;-71
2024/03/29 10:59:26;;;;;;;;;;;18.00;61.90;;;;;;5031954;28;1700;-72
2024/03/29 11:01:54;;;;;;;;;;;18.00;61.90;;;;;;5030943;28;1680;-71
2024/03/29 11:04:22;;;;;;;;;;;18.00;61.90;;;;;;5033293;28;1316;-71
2024/03/29 11:06:49;;;;;;;;;;;18.00;61.90;;;;;;5034228;28;1584;-71
2024/03/29 11:09:14;;;;;;;;;;;18.00;61.90;;;;;;5034058;28;1559;-70
2024/03/29 11:11:43;;;;;;;;;;;18.00;61.90;;;;;;5035122;28;1882;-71
2024/03/29 11:14:10;;;;;;;;;;;18.00;61.90;;;;;;5035200;28;1654;-71
2024/03/29 11:16:35;;;;;;;;;;;18.00;61.90;;;;;;5033320;28;1399;-71
2024/03/29 11:19:04;;;;;;;;;;;18.00;61.90;;;;;;5031337;28;1563;-71
2024/03/29 11:21:31;;;;;;;;;;;18.00;62.60;;;;;;5031857;28;1603;-71
2024/03/29 11:23:57;;;;;;;;;;;18.00;61.80;;;;;;5017662;28;1719;-71
2024/03/29 11:26:22;;;;;;;;;;;18.10;61.90;;;;;;5018491;28;1591;-72
2024/03/29 11:28:48;;;;;;;;;;;18.00;61.80;;;;;;5032638;28;1800;-72
2024/03/29 11:31:14;;;;;;;;;;;18.00;61.80;;;;;;5002452;28;1461;-71
2024/03/29 11:33:48;;;;;;;;;;;18.10;61.80;;;;;;4998112;28;1910;-72
2024/03/29 11:36:27;;;;;;;;;;;18.00;61.80;;;;;;5001447;28;1451;-72
2024/03/29 11:38:52;;;;;;;;;;;18.00;61.80;;;;;;5032612;28;962;-71
2024/03/29 11:41:20;;;;;;;;;;;18.10;61.90;;;;;;5032123;28;1462;-71
2024/03/29 11:43:45;;;;;;;;;;;18.10;61.80;;;;;;4998853;28;1351;-71
2024/03/29 11:46:12;;;;;;;;;;;18.10;61.80;;;;;;5035623;28;1349;-71
2024/03/29 11:48:38;;;;;;;;;;;18.10;61.90;;;;;;5033988;28;1622;-71
2024/03/29 11:51:04;;;;;;;;;;;18.10;61.80;;;;;;5028525;28;1502;-71
2024/03/29 11:53:30;;;;;;;;;;;18.10;61.80;;;;;;5031286;28;1978;-71
2024/03/29 11:55:57;;;;;;;;;;;18.10;61.80;;;;;;5017533;28;1260;-71
2024/03/29 11:58:22;;;;;;;;;;;18.00;61.80;;;;;;5000442;28;1252;-71
2024/03/29 12:00:48;;;;;;;;;;;18.10;61.80;;;;;;5029999;28;1501;-72
2024/03/29 12:03:17;;;;;;;;;;;18.00;61.80;;;;;;5018313;28;1398;-72
2024/03/29 12:05:46;;;;;;;;;;;18.00;61.80;;;;;;5000073;28;1491;-72
2024/03/29 12:08:12;;;;;;;;;;;18.00;61.90;;;;;;5047692;28;1468;-72
2024/03/29 12:10:38;;;;;;;;;;;18.10;61.90;;;;;;5014533;28;1507;-72
2024/03/29 12:13:06;;;;;;;;;;;18.00;61.80;;;;;;5033212;28;1975;-71
2024/03/29 12:15:32;;;;;;;;;;;18.00;61.80;;;;;;5001295;28;1408;-71
2024/03/29 12:17:58;;;;;;;;;;;18.00;61.90;;;;;;5034457;28;1245;-71
2024/03/29 12:20:23;;;;;;;;;;;18.00;61.90;;;;;;5000249;28;1293;-71
2024/03/29 12:22:49;;;;;;;;;;;18.00;61.90;;;;;;5031412;28;1449;-71
2024/03/29 12:25:15;;;;;;;;;;;18.00;61.90;;;;;;5002524;28;1273;-70
2024/03/29 12:27:44;;;;;;;;;;;18.00;61.90;;;;;;4991465;28;1454;-71
2024/03/29 12:30:10;;;;;;;;;;;18.00;61.90;;;;;;5003565;28;1181;-68
2024/03/29 12:32:35;;;;;;;;;;;18.00;61.90;;;;;;5032620;28;1921;-71
2024/03/29 12:35:08;;;;;;;;;;;18.00;61.90;;;;;;5033425;28;1315;-71
2024/03/29 12:37:33;;;;;;;;;;;18.00;62.00;;;;;;5004309;28;1050;-72
2024/03/29 12:39:59;;;;;;;;;;;18.00;62.00;;;;;;5018690;28;1275;-71
2024/03/29 12:42:25;;;;;;;;;;;18.00;62.00;;;;;;5002176;28;1403;-69
2024/03/29 12:44:51;;;;;;;;;;;18.00;62.00;;;;;;5003066;28;1393;-70
2024/03/29 12:47:17;;;;;;;;;;;18.00;62.10;;;;;;5003181;28;1802;-70
2024/03/29 12:49:42;;;;;;;;;;;18.00;62.10;;;;;;5003409;28;1326;-72
2024/03/29 12:52:09;;;;;;;;;;;18.00;62.00;;;;;;5025143;28;1969;-71
2024/03/29 12:54:34;;;;;;;;;;;18.00;62.00;;;;;;5021868;28;1219;-71
2024/03/29 12:57:02;;;;;;;;;;;18.00;62.10;;;;;;4999429;28;1298;-72
2024/03/29 12:59:33;;;;;;;;;;;18.00;62.10;;;;;;5035466;28;1051;-72
2024/03/29 13:01:59;;;;;;;;;;;18.00;62.10;;;;;;5031308;28;1396;-72
2024/03/29 13:04:24;;;;;;;;;;;18.00;62.10;;;;;;5002696;28;1109;-71
2024/03/29 13:06:50;;;;;;;;;;;18.00;62.10;;;;;;5029676;28;1397;-72
2024/03/29 13:09:15;;;;;;;;;;;17.90;62.10;;;;;;5001649;28;1416;-72
2024/03/29 13:11:41;;;;;;;;;;;18.00;62.20;;;;;;4998796;28;963;-72
2024/03/29 13:14:06;;;;;;;;;;;18.00;62.20;;;;;;4999292;28;1976;-71
2024/03/29 13:16:32;;;;;;;;;;;18.00;62.20;;;;;;5002035;28;1270;-71
2024/03/29 13:18:57;;;;;;;;;;;18.00;62.20;;;;;;5001173;28;1437;-70
2024/03/29 13:21:23;;;;;;;;;;;18.00;62.20;;;;;;5001040;28;1706;-70
2024/03/29 13:23:48;;;;;;;;;;;18.00;62.20;;;;;;5032959;28;1888;-70
2024/03/29 13:26:14;;;;;;;;;;;17.90;62.20;;;;;;4996547;28;1370;-70
2024/03/29 13:28:39;;;;;;;;;;;17.90;62.30;;;;;;5030002;28;1249;-71
2024/03/29 13:31:05;;;;;;;;;;;17.90;62.20;;;;;;5027586;28;1972;-70
2024/03/29 13:33:30;;;;;;;;;;;17.90;63.00;;;;;;4998897;28;1954;-71
2024/03/29 13:35:57;;;;;;;;;;;17.90;62.30;;;;;;4995541;28;1400;-71
2024/03/29 13:38:23;;;;;;;;;;;17.90;62.40;;;;;;5027845;28;1649;-72
2024/03/29 13:40:49;;;;;;;;;;;17.90;62.30;;;;;;4996180;28;1111;-71
2024/03/29 13:43:15;;;;;;;;;;;17.90;62.40;;;;;;5027194;28;1542;-69
2024/03/29 13:45:41;;;;;;;;;;;17.90;62.30;;;;;;4994692;28;1676;-69
2024/03/29 13:48:06;;;;;;;;;;;17.90;62.40;;;;;;5001298;28;1439;-71
2024/03/29 13:50:32;;;;;;;;;;;17.90;62.40;;;;;;5032103;28;1337;-70
2024/03/29 13:52:58;;;;;;;;;;;17.90;62.40;;;;;;5032680;28;1917;-71
2024/03/29 13:55:25;;;;;;;;;;;17.90;62.40;;;;;;5000539;28;1627;-71
2024/03/29 13:57:51;;;;;;;;;;;17.90;62.50;;;;;;5000433;28;1341;-69
2024/03/29 14:00:19;;;;;;;;;;;17.90;62.50;;;;;;5002818;28;1505;-70
2024/03/29 14:02:44;;;;;;;;;;;17.90;62.50;;;;;;5004820;28;1968;-69
2024/03/29 14:05:10;;;;;;;;;;;17.80;62.40;;;;;;5002350;28;1355;-70
2024/03/29 14:07:36;;;;;;;;;;;17.90;62.50;;;;;;5016668;28;1387;-71
2024/03/29 14:10:04;;;;;;;;;;;17.90;62.50;;;;;;5004221;28;1245;-71
2024/03/29 14:12:29;;;;;;;;;;;17.80;62.50;;;;;;5027650;28;2267;-72
2024/03/29 14:14:56;;;;;;;;;;;17.90;62.50;;;;;;5005354;28;1546;-71
2024/03/29 14:17:21;;;;;;;;;;;17.90;62.60;;;;;;5023110;28;1378;-69
2024/03/29 14:19:47;;;;;;;;;;;17.80;62.50;;;;;;5002288;28;1357;-70
2024/03/29 14:22:15;;;;;;;;;;;17.90;62.60;;;;;;5035613;28;1668;-71
2024/03/29 14:24:40;;;;;;;;;;;17.80;62.60;;;;;;5035645;28;1511;-69
2024/03/29 14:27:06;;;;;;;;;;;17.80;62.60;;;;;;5003500;28;1311;-70
2024/03/29 14:29:32;;;;;;;;;;;17.80;62.60;;;;;;5036855;28;1368;-71